createdAt,value
2022-12-16T00:02:01.139Z,92800.22
2022-12-16T00:04:27.914Z,92802.00
2022-12-16T00:06:54.336Z,92806.34
2022-12-16T00:09:21.232Z,92803.03
2022-12-16T00:11:47.679Z,92780.00
2022-12-16T00:14:14.168Z,92802.75
2022-12-16T00:16:40.584Z,92801.47
2022-12-16T00:19:07.247Z,92806.59
2022-12-16T00:21:33.667Z,92799.94
2022-12-16T00:24:00.075Z,92801.75
2022-12-16T00:26:26.590Z,92807.38
2022-12-16T00:28:52.981Z,92805.59
2022-12-16T00:31:21.855Z,92805.59
2022-12-16T00:33:52.879Z,92809.91
2022-12-16T00:36:19.350Z,92805.59
2022-12-16T00:38:45.727Z,92802.00
2022-12-16T00:41:12.309Z,92803.53
2022-12-16T00:43:38.901Z,92811.72
2022-12-16T00:46:05.603Z,92809.16
2022-12-16T00:48:32.004Z,92808.13
2022-12-16T00:50:58.529Z,92803.53
2022-12-16T00:53:25.249Z,92787.16
2022-12-16T00:56:01.007Z,92790.75
2022-12-16T00:58:27.427Z,92794.31
2022-12-16T01:00:53.894Z,92795.59
2022-12-16T01:03:22.137Z,92805.34
2022-12-16T01:05:49.295Z,92795.84
2022-12-16T01:08:16.075Z,92801.50
2022-12-16T01:10:42.554Z,92808.66
2022-12-16T01:13:09.114Z,92798.41
2022-12-16T01:15:37.608Z,92807.88
2022-12-16T01:18:04.651Z,92812.75
2022-12-16T01:20:33.046Z,92803.53
2022-12-16T01:22:59.438Z,92817.31
2022-12-16T01:25:26.563Z,92812.47
2022-12-16T01:27:52.993Z,92830.59
2022-12-16T01:30:19.380Z,92833.66
2022-12-16T01:32:45.827Z,92837.25
2022-12-16T01:35:43.779Z,92841.34
2022-12-16T01:37:59.614Z,92841.84
2022-12-16T01:40:26.167Z,92847.97
2022-12-16T01:42:52.582Z,92857.16
2022-12-16T01:45:37.810Z,92847.94
2022-12-16T01:48:21.199Z,92850.53
2022-12-16T01:50:49.703Z,92851.53
2022-12-16T01:53:16.427Z,92857.66
2022-12-16T01:55:48.534Z,92862.78
2022-12-16T01:58:23.848Z,92859.19
2022-12-16T02:00:50.798Z,92873.75
2022-12-16T02:03:17.591Z,92865.06
2022-12-16T02:05:45.868Z,92871.44
2022-12-16T02:08:15.007Z,92859.72
2022-12-16T02:10:44.247Z,92861.75
2022-12-16T02:13:46.852Z,92865.06
2022-12-16T02:16:19.066Z,92866.34
2022-12-16T02:19:10.993Z,92867.38
2022-12-16T02:21:37.390Z,92873.50
2022-12-16T02:24:56.164Z,92874.25
2022-12-16T02:27:44.060Z,92875.25
2022-12-16T02:30:22.891Z,92866.03
2022-12-16T02:32:55.454Z,92876.53
2022-12-16T02:35:56.894Z,92871.91
2022-12-16T02:38:39.729Z,92867.81
2022-12-16T02:41:28.446Z,92865.78
2022-12-16T02:43:59.185Z,92879.56
2022-12-16T02:46:28.505Z,92888.22
2022-12-16T02:48:55.049Z,92883.13
2022-12-16T02:51:25.722Z,92887.97
2022-12-16T02:53:55.579Z,92886.16
2022-12-16T02:56:43.103Z,92888.72
2022-12-16T02:59:18.751Z,92891.81
2022-12-16T03:01:57.242Z,92892.03
2022-12-16T03:04:49.715Z,92891.50
2022-12-16T03:07:19.332Z,92906.53
2022-12-16T03:09:47.195Z,92905.00
2022-12-16T03:12:16.476Z,92889.13
2022-12-16T03:14:48.432Z,92896.03
2022-12-16T03:17:16.743Z,92916.19
2022-12-16T03:19:54.721Z,92899.81
2022-12-16T03:22:26.006Z,92908.03
2022-12-16T03:24:52.480Z,92899.34
2022-12-16T03:27:32.125Z,92903.19
2022-12-16T03:30:09.646Z,92907.03
2022-12-16T03:32:44.249Z,92915.22
2022-12-16T03:35:16.250Z,92918.25
2022-12-16T03:37:46.454Z,92923.84
2022-12-16T03:40:14.344Z,92914.69
2022-12-16T03:42:43.273Z,92914.16
2022-12-16T03:45:15.360Z,92907.50
2022-12-16T03:47:42.259Z,92903.09
2022-12-16T03:50:09.128Z,92915.66
2022-12-16T03:52:36.212Z,92904.66
2022-12-16T03:55:02.829Z,92912.59
2022-12-16T03:57:29.493Z,92917.22
2022-12-16T03:59:55.925Z,92919.78
2022-12-16T04:02:22.486Z,92919.00
2022-12-16T04:04:49.105Z,92916.44
2022-12-16T04:07:21.428Z,92920.28
2022-12-16T04:09:49.457Z,92933.06
2022-12-16T04:12:34.551Z,92923.09
2022-12-16T04:15:20.021Z,92921.06
2022-12-16T04:18:04.882Z,92933.84
2022-12-16T04:20:56.739Z,92936.63
2022-12-16T04:23:57.844Z,92942.25
2022-12-16T04:26:24.295Z,92942.28
2022-12-16T04:28:50.676Z,92950.16
2022-12-16T04:31:17.203Z,92954.78
2022-12-16T04:34:02.376Z,92960.63
2022-12-16T04:36:47.222Z,92969.31
2022-12-16T04:39:31.990Z,92967.00
2022-12-16T04:42:16.986Z,92970.34
2022-12-16T04:45:02.313Z,92968.28
2022-12-16T04:47:47.133Z,92971.06
2022-12-16T04:50:32.094Z,92966.75
2022-12-16T04:53:16.801Z,92965.47
2022-12-16T04:56:04.484Z,92976.97
2022-12-16T04:58:50.333Z,92978.75
2022-12-16T05:01:35.403Z,92976.19
2022-12-16T05:04:20.506Z,92979.00
2022-12-16T05:07:05.283Z,92987.16
2022-12-16T05:09:50.266Z,92981.56
2022-12-16T05:12:35.122Z,92988.69
2022-12-16T05:15:20.103Z,92989.47
2022-12-16T05:18:04.972Z,93001.16
2022-12-16T05:20:49.873Z,93001.44
2022-12-16T05:23:35.242Z,93001.44
2022-12-16T05:26:20.418Z,93011.09
2022-12-16T05:29:05.305Z,93015.19
2022-12-16T05:31:50.042Z,93014.44
2022-12-16T05:34:34.905Z,93014.72
2022-12-16T05:37:19.711Z,93022.88
2022-12-16T05:40:04.518Z,93030.03
2022-12-16T05:42:49.383Z,93028.47
2022-12-16T05:45:34.242Z,93037.69
2022-12-16T05:48:19.157Z,93040.72
2022-12-16T05:51:03.942Z,93050.16
2022-12-16T05:53:48.988Z,93050.94
2022-12-16T05:56:33.789Z,93055.25
2022-12-16T05:59:19.217Z,93056.34
2022-12-16T06:02:04.240Z,93063.72
2022-12-16T06:04:49.519Z,93057.31
2022-12-16T06:07:34.389Z,93069.31
2022-12-16T06:10:19.205Z,93070.28
2022-12-16T06:13:07.290Z,93075.66
2022-12-16T06:15:52.165Z,93081.75
2022-12-16T06:18:37.372Z,93084.84
2022-12-16T06:21:22.853Z,93082.50
2022-12-16T06:24:07.733Z,93083.00
2022-12-16T06:26:52.590Z,93089.66
2022-12-16T06:29:37.264Z,93094.78
2022-12-16T06:32:22.498Z,93095.00
2022-12-16T06:35:07.300Z,93092.69
2022-12-16T06:37:52.130Z,93107.50
2022-12-16T06:40:36.913Z,93101.31
2022-12-16T06:43:21.917Z,93114.03
2022-12-16T06:46:07.005Z,93119.38
2022-12-16T06:48:51.914Z,93127.75
2022-12-16T06:51:36.816Z,93130.56
2022-12-16T06:54:21.565Z,93133.31
2022-12-16T06:57:06.372Z,93140.50
2022-12-16T06:59:51.022Z,93155.81
2022-12-16T07:02:35.983Z,93159.91
2022-12-16T07:05:21.089Z,93156.50
2022-12-16T07:08:10.024Z,93158.47
2022-12-16T07:11:00.362Z,93172.31
2022-12-16T07:13:54.122Z,93176.66
2022-12-16T07:16:39.181Z,93183.31
2022-12-16T07:19:24.260Z,93188.88
2022-12-16T07:22:09.205Z,93191.72
2022-12-16T07:24:53.953Z,93188.81
2022-12-16T07:27:38.801Z,93203.66
2022-12-16T07:30:24.246Z,93202.16
2022-12-16T07:33:09.463Z,93208.34
2022-12-16T07:35:54.320Z,93209.66
2022-12-16T07:38:39.125Z,93216.06
2022-12-16T07:41:44.386Z,93218.13
2022-12-16T07:44:29.732Z,93221.22
2022-12-16T07:47:14.396Z,93230.34
2022-12-16T07:50:19.437Z,93235.69
2022-12-16T07:53:04.522Z,93242.03
2022-12-16T07:55:49.112Z,93248.97
2022-12-16T07:58:33.861Z,93253.09
2022-12-16T08:01:19.846Z,93258.97
2022-12-16T08:04:05.221Z,93268.72
2022-12-16T08:06:50.434Z,93272.56
2022-12-16T08:09:35.615Z,93276.44
2022-12-16T08:12:20.563Z,93273.41
2022-12-16T08:15:05.388Z,93274.97
2022-12-16T08:17:50.185Z,93287.28
2022-12-16T08:20:37.603Z,93287.84
2022-12-16T08:23:22.944Z,93296.53
2022-12-16T08:26:08.084Z,93292.22
2022-12-16T08:28:53.870Z,93297.56
2022-12-16T08:31:38.633Z,93298.88
2022-12-16T08:34:23.443Z,93302.69
2022-12-16T08:37:08.567Z,93308.31
2022-12-16T08:40:17.576Z,93319.31
2022-12-16T08:42:58.745Z,93313.38
2022-12-16T08:45:44.010Z,93320.78
2022-12-16T08:48:29.093Z,93325.41
2022-12-16T08:51:14.460Z,93322.59
2022-12-16T08:53:59.880Z,93327.44
2022-12-16T08:56:44.632Z,93330.75
2022-12-16T08:59:29.562Z,93326.03
2022-12-16T09:02:14.493Z,93331.22
2022-12-16T09:04:59.885Z,93323.56
2022-12-16T09:07:45.074Z,93325.75
2022-12-16T09:10:32.278Z,93341.72
2022-12-16T09:13:28.950Z,93343.03
2022-12-16T09:16:17.681Z,93348.75
2022-12-16T09:19:04.522Z,93353.97
2022-12-16T09:21:49.849Z,93348.66
2022-12-16T09:24:34.652Z,93360.44
2022-12-16T09:27:19.909Z,93351.00
2022-12-16T09:30:05.028Z,93357.72
2022-12-16T09:32:49.982Z,93369.03
2022-12-16T09:35:35.372Z,93372.16
2022-12-16T09:38:20.384Z,93373.25
2022-12-16T09:41:05.179Z,93380.72
2022-12-16T09:44:25.405Z,93374.31
2022-12-16T09:47:31.056Z,93389.53
2022-12-16T09:50:15.955Z,93391.59
2022-12-16T09:53:06.996Z,93386.75
2022-12-16T09:55:56.824Z,93393.06
2022-12-16T09:58:45.215Z,93391.06
2022-12-16T10:01:32.181Z,93392.09
2022-12-16T10:04:17.361Z,93390.03
2022-12-16T10:07:08.098Z,93403.06
2022-12-16T10:10:11.805Z,93409.47
2022-12-16T10:13:02.834Z,93404.38
2022-12-16T10:15:57.517Z,93400.84
2022-12-16T10:18:59.135Z,93407.44
2022-12-16T10:21:54.775Z,93405.06
2022-12-16T10:24:55.772Z,93400.50
2022-12-16T10:28:03.963Z,93397.13
2022-12-16T10:30:51.391Z,93401.28
2022-12-16T10:33:38.909Z,93405.38
2022-12-16T10:36:31.643Z,93398.66
2022-12-16T10:39:21.424Z,93415.53
2022-12-16T10:42:10.119Z,93415.06
2022-12-16T10:45:18.442Z,93408.88
2022-12-16T10:48:03.197Z,93418.03
2022-12-16T10:50:48.018Z,93415.06
2022-12-16T10:53:41.817Z,93412.66
2022-12-16T10:57:08.860Z,93417.34
2022-12-16T10:59:59.134Z,93408.22
2022-12-16T11:02:47.309Z,93415.03
2022-12-16T11:05:51.977Z,93421.25
2022-12-16T11:08:45.013Z,93419.69
2022-12-16T11:11:47.346Z,93425.41
2022-12-16T11:15:05.739Z,93421.81
2022-12-16T11:17:49.242Z,93421.13
2022-12-16T11:20:39.591Z,93421.41
2022-12-16T11:23:31.362Z,93429.34
2022-12-16T11:26:37.041Z,93429.59
2022-12-16T11:29:22.722Z,93428.75
2022-12-16T11:32:13.475Z,93437.19
2022-12-16T11:35:00.400Z,93435.16
2022-12-16T11:37:47.804Z,93437.69
2022-12-16T11:40:35.551Z,93445.56
2022-12-16T11:43:24.312Z,93445.28
2022-12-16T11:46:11.295Z,93447.25
2022-12-16T11:49:23.468Z,93448.78
2022-12-16T11:52:35.972Z,93449.31
2022-12-16T11:56:11.164Z,93451.97
2022-12-16T11:59:03.982Z,93459.00
2022-12-16T12:01:51.181Z,93456.97
2022-12-16T12:04:36.333Z,93467.72
2022-12-16T12:07:45.594Z,93471.56
2022-12-16T12:10:43.413Z,93477.47
2022-12-16T12:13:54.659Z,93475.91
2022-12-16T12:17:12.111Z,93475.44
2022-12-16T12:20:31.095Z,93478.72
2022-12-16T12:23:24.592Z,93483.53
2022-12-16T12:26:30.331Z,93485.19
2022-12-16T12:29:40.137Z,93481.66
2022-12-16T12:32:54.802Z,93485.72
2022-12-16T12:36:19.355Z,93481.66
2022-12-16T12:39:23.744Z,93483.69
2022-12-16T12:42:36.249Z,93488.63
2022-12-16T12:46:08.464Z,93492.19
2022-12-16T12:48:59.499Z,93504.84
2022-12-16T12:51:54.232Z,93500.19
2022-12-16T12:54:48.108Z,93511.97
2022-12-16T12:57:36.874Z,93507.03
2022-12-16T13:00:38.713Z,93511.38
2022-12-16T13:03:52.394Z,93512.16
2022-12-16T13:06:39.192Z,93513.91
2022-12-16T13:09:47.120Z,93518.00
2022-12-16T13:12:31.906Z,93522.06
2022-12-16T13:15:25.976Z,93527.63
2022-12-16T13:18:19.995Z,93528.09
2022-12-16T13:21:43.794Z,93517.75
2022-12-16T13:24:53.190Z,93537.66
2022-12-16T13:27:38.783Z,93537.56
2022-12-16T13:30:39.672Z,93534.94
2022-12-16T13:33:40.115Z,93539.03
2022-12-16T13:36:25.932Z,93538.03
2022-12-16T13:39:13.825Z,93549.78
2022-12-16T13:41:58.777Z,93552.59
2022-12-16T13:45:02.037Z,93551.28
2022-12-16T13:47:51.245Z,93556.28
2022-12-16T13:50:55.198Z,93571.59
2022-12-16T13:53:44.273Z,93582.31
2022-12-16T13:56:33.601Z,93582.53
2022-12-16T13:59:24.001Z,93587.41
2022-12-16T14:02:13.236Z,93583.53
2022-12-16T14:05:08.587Z,93586.78
2022-12-16T14:07:57.340Z,93590.81
2022-12-16T14:10:48.518Z,93605.34
2022-12-16T14:13:41.178Z,93605.81
2022-12-16T14:16:32.356Z,93611.13
2022-12-16T14:19:34.060Z,93617.25
2022-12-16T14:22:24.124Z,93605.72
2022-12-16T14:25:09.487Z,93622.81
2022-12-16T14:27:54.442Z,93618.94
2022-12-16T14:30:43.299Z,93625.91
2022-12-16T14:33:35.530Z,93630.25
2022-12-16T14:36:21.020Z,93625.84
2022-12-16T14:39:07.891Z,93635.50
2022-12-16T14:41:53.442Z,93631.38
2022-12-16T14:44:43.236Z,93641.84
2022-12-16T14:47:39.361Z,93634.56
2022-12-16T14:50:46.114Z,93641.28
2022-12-16T14:53:40.300Z,93652.81
2022-12-16T14:56:35.270Z,93657.16
2022-12-16T14:59:32.337Z,93664.50
2022-12-16T15:02:31.147Z,93662.84
2022-12-16T15:05:16.691Z,93672.59
2022-12-16T15:08:01.797Z,93680.03
2022-12-16T15:10:47.171Z,93681.38
2022-12-16T15:13:36.920Z,93679.81
2022-12-16T15:16:24.345Z,93680.03
2022-12-16T15:19:17.682Z,93686.81
2022-12-16T15:22:03.181Z,93694.16
2022-12-16T15:24:53.908Z,93705.44
2022-12-16T15:27:51.787Z,93712.03
2022-12-16T15:31:04.589Z,93720.47
2022-12-16T15:33:56.234Z,93720.22
2022-12-16T15:36:41.196Z,93724.25
2022-12-16T15:39:50.415Z,93722.34
2022-12-16T15:42:43.376Z,93730.00
2022-12-16T15:45:56.182Z,93736.44
2022-12-16T15:48:44.296Z,93739.31
2022-12-16T15:51:47.888Z,93741.88
2022-12-16T15:54:41.319Z,93741.44
2022-12-16T15:57:44.801Z,93730.00
2022-12-16T16:00:55.893Z,93752.41
2022-12-16T16:03:45.808Z,93755.19
2022-12-16T16:06:40.164Z,93763.06
2022-12-16T16:09:38.429Z,93766.50
2022-12-16T16:12:23.178Z,93768.97
2022-12-16T16:15:07.928Z,93768.72
2022-12-16T16:17:52.748Z,93767.19
2022-12-16T16:20:39.521Z,93779.03
2022-12-16T16:23:24.242Z,93783.41
2022-12-16T16:26:09.216Z,93789.47
2022-12-16T16:28:54.044Z,93789.72
2022-12-16T16:31:38.878Z,93792.47
2022-12-16T16:34:24.106Z,93788.69
2022-12-16T16:37:13.064Z,93794.25
2022-12-16T16:39:58.500Z,93801.03
2022-12-16T16:42:43.688Z,93792.03
2022-12-16T16:45:29.553Z,93812.88
2022-12-16T16:48:29.860Z,93813.66
2022-12-16T16:51:16.151Z,93807.34
2022-12-16T16:54:15.639Z,93819.13
2022-12-16T16:57:00.553Z,93821.31
2022-12-16T16:59:45.409Z,93826.00
2022-12-16T17:02:40.858Z,93824.44
2022-12-16T17:05:28.277Z,93834.63
2022-12-16T17:08:13.755Z,93833.53
2022-12-16T17:10:58.616Z,93838.84
2022-12-16T17:13:43.474Z,93851.06
2022-12-16T17:16:32.710Z,93851.50
2022-12-16T17:19:18.025Z,93853.25
2022-12-16T17:22:02.920Z,93847.25
2022-12-16T17:24:51.425Z,93860.47
2022-12-16T17:27:42.007Z,93862.59
2022-12-16T17:30:36.009Z,93876.91
2022-12-16T17:33:21.755Z,93871.13
2022-12-16T17:36:08.269Z,93882.44
2022-12-16T17:38:57.768Z,93888.00
2022-12-16T17:41:43.021Z,93887.44
2022-12-16T17:44:28.514Z,93901.41
2022-12-16T17:47:13.352Z,93905.03
2022-12-16T17:49:58.347Z,93902.38
2022-12-16T17:52:43.364Z,93909.47
2022-12-16T17:55:28.699Z,93914.22
2022-12-16T17:58:13.743Z,93925.63
2022-12-16T18:00:58.993Z,93940.72
2022-12-16T18:03:44.031Z,93938.31
2022-12-16T18:06:29.119Z,93947.50
2022-12-16T18:09:14.018Z,93940.84
2022-12-16T18:11:58.900Z,93942.41
2022-12-16T18:14:43.730Z,93943.41
2022-12-16T18:17:28.491Z,93941.84
2022-12-16T18:20:13.447Z,93940.50
2022-12-16T18:22:58.543Z,93949.50
2022-12-16T18:25:43.496Z,93953.38
2022-12-16T18:28:28.930Z,93958.03
2022-12-16T18:31:13.802Z,93957.25
2022-12-16T18:33:59.145Z,93956.94
2022-12-16T18:36:44.449Z,93958.47
2022-12-16T18:39:29.303Z,93956.94
2022-12-16T18:42:14.206Z,93958.47
2022-12-16T18:45:01.271Z,93966.72
2022-12-16T18:47:46.960Z,93964.91
2022-12-16T18:50:37.269Z,93971.03
2022-12-16T18:53:23.855Z,93966.38
2022-12-16T18:56:18.319Z,93977.00
2022-12-16T18:59:03.162Z,93963.25
2022-12-16T19:01:48.090Z,93968.84
2022-12-16T19:04:33.142Z,93975.16
2022-12-16T19:07:18.542Z,93985.44
2022-12-16T19:10:03.486Z,93981.22
2022-12-16T19:12:59.146Z,93992.03
2022-12-16T19:15:43.887Z,93992.47
2022-12-16T19:18:30.441Z,93993.34
2022-12-16T19:21:16.142Z,94004.94
2022-12-16T19:24:01.777Z,94013.00
2022-12-16T19:26:46.615Z,94017.97
2022-12-16T19:29:31.375Z,94019.59
2022-12-16T19:32:16.302Z,94020.38
2022-12-16T19:35:01.467Z,94019.03
2022-12-16T19:37:46.278Z,94020.78
2022-12-16T19:40:31.069Z,94030.84
2022-12-16T19:43:15.926Z,94024.41
2022-12-16T19:46:00.842Z,94027.72
2022-12-16T19:48:45.961Z,94029.84
2022-12-16T19:51:30.937Z,94024.41
2022-12-16T19:54:15.682Z,94030.25
2022-12-16T19:57:00.628Z,94038.13
2022-12-16T19:59:45.515Z,94045.41
2022-12-16T20:02:31.229Z,94046.81
2022-12-16T20:05:16.787Z,94047.28
2022-12-16T20:08:01.702Z,94051.19
2022-12-16T20:10:46.609Z,94055.06
2022-12-16T20:13:31.893Z,94064.69
2022-12-16T20:16:24.329Z,94064.91
2022-12-16T20:19:09.824Z,94066.69
2022-12-16T20:21:56.448Z,94078.63
2022-12-16T20:24:42.796Z,94080.22
2022-12-16T20:27:28.600Z,94083.16
2022-12-16T20:30:13.953Z,94088.25
2022-12-16T20:32:59.479Z,94098.28
2022-12-16T20:35:44.236Z,94098.72
2022-12-16T20:38:29.187Z,94099.38
2022-12-16T20:41:16.221Z,94105.03
2022-12-16T20:44:01.031Z,94112.50
2022-12-16T20:46:47.487Z,94110.94
2022-12-16T20:49:32.967Z,94124.47
2022-12-16T20:52:17.781Z,94114.50
2022-12-16T20:55:02.542Z,94124.69
2022-12-16T20:57:47.391Z,94115.69
2022-12-16T21:00:32.877Z,94122.31
2022-12-16T21:03:17.782Z,94127.63
2022-12-16T21:06:03.064Z,94141.91
2022-12-16T21:08:48.027Z,94143.47
2022-12-16T21:11:32.830Z,94146.03
2022-12-16T21:14:17.653Z,94151.69
2022-12-16T21:17:02.434Z,94146.19
2022-12-16T21:19:47.376Z,94144.19
2022-12-16T21:22:32.150Z,94144.78
2022-12-16T21:25:22.759Z,94145.22
2022-12-16T21:28:09.717Z,94140.72
2022-12-16T21:31:05.245Z,94147.00
2022-12-16T21:33:50.274Z,94149.78
2022-12-16T21:36:35.541Z,94161.94
2022-12-16T21:39:20.897Z,94144.78
2022-12-16T21:42:05.636Z,94167.44
2022-12-16T21:44:50.488Z,94174.09
2022-12-16T21:47:35.230Z,94181.75
2022-12-16T21:50:20.593Z,94184.47
2022-12-16T21:53:06.522Z,94189.38
2022-12-16T21:55:51.341Z,94185.50
2022-12-16T21:58:37.292Z,94200.91
2022-12-16T22:01:23.167Z,94199.16
2022-12-16T22:04:08.344Z,94214.38
2022-12-16T22:06:54.763Z,94209.25
2022-12-16T22:09:40.118Z,94205.75
2022-12-16T22:12:25.537Z,94221.03
2022-12-16T22:15:10.337Z,94227.09
2022-12-16T22:17:58.596Z,94230.81
2022-12-16T22:20:44.245Z,94230.25
2022-12-16T22:23:29.147Z,94225.75
2022-12-16T22:26:18.995Z,94224.59
2022-12-16T22:29:04.514Z,94233.22
2022-12-16T22:31:49.827Z,94234.25
2022-12-16T22:34:34.746Z,94235.66
2022-12-16T22:37:19.613Z,94244.06
2022-12-16T22:40:04.582Z,94243.28
2022-12-16T22:42:49.546Z,94236.69
2022-12-16T22:45:34.748Z,94243.91
2022-12-16T22:48:19.712Z,94242.97
2022-12-16T22:51:04.528Z,94249.44
2022-12-16T22:53:49.440Z,94248.28
2022-12-16T22:56:34.497Z,94245.94
2022-12-16T22:59:19.323Z,94257.06
2022-12-16T23:02:04.087Z,94258.66
2022-12-16T23:04:49.229Z,94259.66
2022-12-16T23:07:34.474Z,94250.66
2022-12-16T23:10:19.288Z,94251.03
2022-12-16T23:13:20.880Z,94264.72
2022-12-16T23:16:05.967Z,94260.81
2022-12-16T23:18:50.846Z,94266.66
2022-12-16T23:21:38.163Z,94273.91
2022-12-16T23:24:23.391Z,94283.88
2022-12-16T23:27:08.586Z,94278.38
2022-12-16T23:29:56.625Z,94285.81
2022-12-16T23:32:42.642Z,94289.53
2022-12-16T23:35:28.120Z,94295.19
2022-12-16T23:38:24.415Z,94292.47
2022-12-16T23:41:16.438Z,94286.03
2022-12-16T23:44:02.310Z,94305.78
2022-12-16T23:46:47.622Z,94305.19
2022-12-16T23:49:32.854Z,94315.16
2022-12-16T23:52:17.800Z,94312.03
2022-12-16T23:55:02.741Z,94306.78
2022-12-16T23:57:47.796Z,94311.47
